Terminal Aerodrome Forecast
Issued by NWS

Home | Current Version | Previous Version | Text Only | Print | Product List | Glossary On
Versions: 1 2 3 4 5 6 7 8 9 10 11 12 13 14 15 16 17 18 19 20 21 22 23 24 25 26 27 28 29 30 31 32 33 34 35 36
000
FTUS46 KLOX 202332
TAFLAX
TAF
KLAX 202332Z 2100/2206 26014KT P6SM FEW017
     FM210300 26010KT P6SM FEW015
     FM210700 VRB03KT P6SM OVC015
     FM211800 26008KT P6SM FEW020
     FM212100 26012KT P6SM SKC
     FM220500 25006KT P6SM FEW015=

USA.gov is the U.S. government's official web portal to all federal, state and local government web resources and services.